createdAt,value
2023-05-04T08:12:52.326Z,10.27
2023-05-04T08:18:42.023Z,9.25
2023-05-04T08:21:29.137Z,10.18
2023-05-04T08:27:17.068Z,9.55
2023-05-04T08:30:04.422Z,8.82
2023-05-04T08:32:50.247Z,9.93
2023-05-04T08:35:25.034Z,9.13
2023-05-04T08:37:59.399Z,9.43
2023-05-04T08:41:05.787Z,9.13
2023-05-04T08:43:58.613Z,9.52
2023-05-04T08:46:39.756Z,7.93
2023-05-04T08:49:31.668Z,8.48
2023-05-04T08:52:00.986Z,9.23
2023-05-04T08:54:38.119Z,9.10
2023-05-04T08:57:09.995Z,8.18
2023-05-04T08:59:47.566Z,7.97
2023-05-04T09:05:29.994Z,8.15
2023-05-04T09:08:32.804Z,7.63
2023-05-04T09:14:26.675Z,6.95
2023-05-04T09:17:09.936Z,7.72
2023-05-04T09:19:40.661Z,7.68
2023-05-04T09:31:47.567Z,7.25
2023-05-04T09:37:53.285Z,6.82
2023-05-04T09:40:34.457Z,6.25
2023-05-04T09:43:22.054Z,7.00
2023-05-04T09:46:10.904Z,6.85
2023-05-04T09:48:45.139Z,7.07
2023-05-04T09:51:19.510Z,6.82
2023-05-04T09:54:11.762Z,6.57
2023-05-04T09:56:50.529Z,5.85
2023-05-04T09:59:26.285Z,6.38
2023-05-04T10:02:35.912Z,6.30
2023-05-04T10:05:27.318Z,6.13
2023-05-04T10:08:25.516Z,5.75
2023-05-04T10:10:54.423Z,6.28
2023-05-04T10:13:26.600Z,6.32
2023-05-04T10:16:23.766Z,6.10
2023-05-04T10:19:20.191Z,5.32
2023-05-04T10:22:09.719Z,5.68
2023-05-04T10:24:56.819Z,6.57
2023-05-04T10:27:55.571Z,5.03
2023-05-04T10:30:57.231Z,5.32
2023-05-04T10:33:32.325Z,5.72
2023-05-04T10:36:14.218Z,5.95
2023-05-04T10:38:46.254Z,6.22
2023-05-04T10:41:36.643Z,7.25
2023-05-04T10:44:26.348Z,4.85
2023-05-04T10:47:14.178Z,5.35
2023-05-04T10:49:47.685Z,5.35
2023-05-04T10:52:20.467Z,5.65
2023-05-04T10:55:12.249Z,5.88
2023-05-04T10:57:59.743Z,6.28
2023-05-04T11:07:22.741Z,5.50
2023-05-04T11:13:36.010Z,5.30
2023-05-04T11:16:40.605Z,5.40
2023-05-04T11:28:55.527Z,4.82
2023-05-04T11:38:09.914Z,4.75
2023-05-04T14:00:06.310Z,2.80
2023-05-04T14:21:40.761Z,2.10
2023-05-04T14:27:37.909Z,1.92
2023-05-04T14:51:15.715Z,2.53
2023-05-04T14:54:00.516Z,2.10
2023-05-04T14:56:35.032Z,2.30
2023-05-04T14:59:26.523Z,2.20
2023-05-04T15:02:07.110Z,2.30
2023-05-04T15:04:39.730Z,2.90
2023-05-04T15:07:11.137Z,2.55
2023-05-04T15:09:48.275Z,2.45
2023-05-04T15:12:35.428Z,2.20
2023-05-04T15:15:17.841Z,2.72
2023-05-04T15:17:46.534Z,2.35
2023-05-04T15:20:21.162Z,2.40
2023-05-04T15:22:51.658Z,2.20
2023-05-04T15:25:26.730Z,3.42
2023-05-04T15:27:59.836Z,2.88
2023-05-04T15:33:47.497Z,2.80
2023-05-04T15:37:08.619Z,3.08
2023-05-04T15:39:56.688Z,3.28
2023-05-04T15:42:34.302Z,2.90
2023-05-04T15:54:45.223Z,2.58
2023-05-04T16:13:12.054Z,7.90
2023-05-04T16:22:35.882Z,3.03
2023-05-04T19:10:50.905Z,2.80
2023-05-04T19:23:19.020Z,2.85
2023-05-04T22:35:51.977Z,5.38
